Altamonte Springs, FL

6:36 AM EDT on May 06, 2015 (GMT -0400)
Rolling Hills | | Change Station
CLOSE
Current Station
Personal Weather Station
Location: Longwood, FL
Elevation: 121 ft
Nearby Weather Stations

Elev 121 ft 28.69 °N, 81.38 °W | Updated 5 minutes ago

Mostly Cloudy
Mostly Cloudy
67.8 °F
Feels Like 67.8 °F
N
0.0
Wind Variable Wind from West

Today
High -- | Low -- °F
--% Chance of Precip.
Yesterday
High -- | Low -- °F
Precip. -- in
6:40 AM 8:03 PM
Waning Gibbous, 95% visible
Pressure 30.05 in
Visibility 10.0 miles
Clouds Few 8500 ft
Dew Point 67 °F
Humidity 97%
Rainfall 0.00 in
Snow Depth Not available.
UV 0 out of 12
Pollen 6.20 out of 12
Air Quality Not available.
Flu Activity Local Activity
METAR KORL 060953Z AUTO 35004KT 10SM FEW085 22/19 A3004 RMK AO2 SLP175 T02170189

More Conditions Fewer Conditions

Pressure 30.05 in
Visibility 10.0 miles
Clouds Few 8500 ft
Dew Point 67 °F
Humidity 97%
Rainfall 0.00 in
Snow Depth Not available.
UV 0 out of 12
Pollen 6.20 out of 12
Air Quality Not available.
Flu Activity Local Activity
METAR KORL 060953Z AUTO 35004KT 10SM FEW085 22/19 A3004 RMK AO2 SLP175 T02170189

More Conditions Fewer Conditions

Nowcast | as of 6:18 am EDT on May 6, 2015

A weak low pressure system has formed north of the Bahamas that will drift slowly north through mid morning. This will generate a deep and steady north to northeast breeze across central Florida. Scattered showers and isolated thunderstorms will push onshore...producing periods of moderate to heavy rain over the coastal counties. A few showers will manage to push into the interior counties and produce periods of light to moderate rain. General rainfall will be between one quarter and one half inch with local amounts up to one inch. Additional details...including graphics are available online at: http://www.Srh.NOAA.Gov/mlb/blog.Php

×

10-Day Weather Forecast

Almanac

Astronomy

May. 06, 2015 Rise Set
Actual Time
Civil Twilight
Nautical Twilight
Astronomical Twilight
Moon
Length of Visible Light
Length of Day
Tomorrow will be .
, % of the Moon is Illuminated

Today's Extremes

State Highs State Lows

Community

WunderPhotos

Upload Photos

1,818,859 photos uploaded!

WunderBlogs® & News

Nearby

Air Quality

  Air Quality AQ Index Pollutant
Not available.

Snow Depth

Station Depth Elevation

Earthquake Activity

City Distance Mag. Time & Date
Minimum magnitude displayed is 2.5.

Coastal Water Temperatures

Place Temperature

Stations

Nearby Weather Stations

Station Location Temp. Windchill Dew Point Humidity Wind Precip. Elev Updated Type